Lewiston, Nebraska
Current Conditions -  °F | °C
As of 3:15 AM on Friday 19 Dec 2014 (Local Time) from KBIE Reporting Station
Overcast Overcast  
Wind Chill: 24°   Ceiling: 2900
Heat Index: 30°   Visibility: 7mi
Dew Point: 28°   Wind: 6mph
Humidity: 92%   Direction: 200°SSW
Pressure: 30.23"   Gusts: NA
Location:  40.24°N, 96.4°W
Report Text: KBIE 190915Z AUTO 20005KT 7SM SCT013 OVC029 M01/M02 A3023 RMK AO2 T10111023
Loading
Personal Weather Stations






























Interactive Weather Map New forecast layout! Learn more

10-Day Weather Forecast

Advertisements
Track Severe Weather on mobile